METAR Data
IDs: Format: Raw Decoded Include TAF

Data at: 1031 UTC 28 Sep 2021

LIRN 281020Z 09005KT 060V140 9999 FEW040 28/16 Q1017 NOSIG